sensor_id;sensor_type;location;lat;lon;timestamp;P1;durP1;ratioP1;P2;durP2;ratioP2
64225;SDS011;50545;56.064;26.178;2022-09-09T00:10:17;1.02;;;0.88;;
64225;SDS011;50545;56.064;26.178;2022-09-09T00:15:43;0.63;;;0.63;;
64225;SDS011;50545;56.064;26.178;2022-09-09T00:20:54;0.80;;;0.77;;
64225;SDS011;50545;56.064;26.178;2022-09-09T00:23:34;0.50;;;0.50;;
64225;SDS011;50545;56.064;26.178;2022-09-09T00:26:31;0.65;;;0.65;;
64225;SDS011;50545;56.064;26.178;2022-09-09T00:29:12;0.60;;;0.60;;
64225;SDS011;50545;56.064;26.178;2022-09-09T00:32:17;0.95;;;0.65;;
64225;SDS011;50545;56.064;26.178;2022-09-09T00:37:42;1.52;;;1.00;;
64225;SDS011;50545;56.064;26.178;2022-09-09T00:40:32;1.27;;;1.00;;
64225;SDS011;50545;56.064;26.178;2022-09-09T00:46:26;2.25;;;1.15;;
64225;SDS011;50545;56.064;26.178;2022-09-09T00:49:24;1.65;;;1.10;;
64225;SDS011;50545;56.064;26.178;2022-09-09T00:57:41;1.30;;;0.85;;
64225;SDS011;50545;56.064;26.178;2022-09-09T01:11:41;1.10;;;0.85;;
64225;SDS011;50545;56.064;26.178;2022-09-09T01:23:03;0.77;;;0.77;;
64225;SDS011;50545;56.064;26.178;2022-09-09T01:28:11;0.60;;;0.60;;
64225;SDS011;50545;56.064;26.178;2022-09-09T01:30:44;1.98;;;0.93;;
64225;SDS011;50545;56.064;26.178;2022-09-09T01:33:16;1.38;;;0.98;;
64225;SDS011;50545;56.064;26.178;2022-09-09T01:38:42;1.38;;;0.73;;
64225;SDS011;50545;56.064;26.178;2022-09-09T01:41:09;0.68;;;0.68;;
64225;SDS011;50545;56.064;26.178;2022-09-09T01:43:36;1.45;;;0.45;;
64225;SDS011;50545;56.064;26.178;2022-09-09T01:46:05;1.90;;;0.77;;
64225;SDS011;50545;56.064;26.178;2022-09-09T01:48:32;0.60;;;0.60;;
64225;SDS011;50545;56.064;26.178;2022-09-09T01:51:00;0.95;;;0.80;;
64225;SDS011;50545;56.064;26.178;2022-09-09T01:53:27;0.93;;;0.82;;
64225;SDS011;50545;56.064;26.178;2022-09-09T01:58:37;0.60;;;0.60;;
64225;SDS011;50545;56.064;26.178;2022-09-09T02:01:35;1.00;;;0.85;;
64225;SDS011;50545;56.064;26.178;2022-09-09T02:04:05;0.50;;;0.50;;
64225;SDS011;50545;56.064;26.178;2022-09-09T02:06:59;0.60;;;0.60;;
64225;SDS011;50545;56.064;26.178;2022-09-09T02:09:28;0.75;;;0.75;;
64225;SDS011;50545;56.064;26.178;2022-09-09T02:12:05;1.02;;;0.80;;
64225;SDS011;50545;56.064;26.178;2022-09-09T02:14:41;0.80;;;0.75;;
64225;SDS011;50545;56.064;26.178;2022-09-09T02:17:17;0.95;;;0.82;;
64225;SDS011;50545;56.064;26.178;2022-09-09T02:19:50;1.17;;;0.90;;
64225;SDS011;50545;56.064;26.178;2022-09-09T02:22:23;1.58;;;1.00;;
64225;SDS011;50545;56.064;26.178;2022-09-09T02:24:54;1.88;;;1.00;;
64225;SDS011;50545;56.064;26.178;2022-09-09T02:27:26;1.30;;;0.93;;
64225;SDS011;50545;56.064;26.178;2022-09-09T02:29:53;0.82;;;0.70;;
64225;SDS011;50545;56.064;26.178;2022-09-09T02:32:23;0.57;;;0.57;;
64225;SDS011;50545;56.064;26.178;2022-09-09T02:34:55;0.40;;;0.40;;
64225;SDS011;50545;56.064;26.178;2022-09-09T02:37:27;0.80;;;0.70;;
64225;SDS011;50545;56.064;26.178;2022-09-09T02:40:04;0.75;;;0.60;;
64225;SDS011;50545;56.064;26.178;2022-09-09T02:42:43;0.52;;;0.52;;
64225;SDS011;50545;56.064;26.178;2022-09-09T02:45:14;0.95;;;0.75;;
64225;SDS011;50545;56.064;26.178;2022-09-09T02:47:50;0.80;;;0.80;;
64225;SDS011;50545;56.064;26.178;2022-09-09T02:50:27;2.58;;;1.42;;
64225;SDS011;50545;56.064;26.178;2022-09-09T02:55:54;6.10;;;3.40;;
64225;SDS011;50545;56.064;26.178;2022-09-09T02:58:26;5.13;;;2.70;;
64225;SDS011;50545;56.064;26.178;2022-09-09T03:00:54;2.80;;;1.65;;
64225;SDS011;50545;56.064;26.178;2022-09-09T03:03:24;3.40;;;1.48;;
64225;SDS011;50545;56.064;26.178;2022-09-09T03:05:51;2.65;;;1.63;;
64225;SDS011;50545;56.064;26.178;2022-09-09T03:08:19;3.05;;;1.90;;
64225;SDS011;50545;56.064;26.178;2022-09-09T03:10:46;2.67;;;1.70;;
64225;SDS011;50545;56.064;26.178;2022-09-09T03:13:13;3.03;;;1.30;;
64225;SDS011;50545;56.064;26.178;2022-09-09T03:15:41;2.33;;;1.48;;
64225;SDS011;50545;56.064;26.178;2022-09-09T03:18:08;1.38;;;1.00;;
64225;SDS011;50545;56.064;26.178;2022-09-09T03:20:36;1.80;;;1.10;;
64225;SDS011;50545;56.064;26.178;2022-09-09T03:23:03;1.10;;;1.00;;
64225;SDS011;50545;56.064;26.178;2022-09-09T03:25:30;1.90;;;1.08;;
64225;SDS011;50545;56.064;26.178;2022-09-09T03:27:58;1.02;;;0.85;;
64225;SDS011;50545;56.064;26.178;2022-09-09T03:30:26;0.98;;;0.88;;
64225;SDS011;50545;56.064;26.178;2022-09-09T03:32:54;1.48;;;1.05;;
64225;SDS011;50545;56.064;26.178;2022-09-09T03:35:21;1.15;;;0.88;;
64225;SDS011;50545;56.064;26.178;2022-09-09T03:37:49;1.15;;;0.90;;
64225;SDS011;50545;56.064;26.178;2022-09-09T03:40:16;1.88;;;1.33;;
64225;SDS011;50545;56.064;26.178;2022-09-09T03:42:44;1.50;;;1.08;;
64225;SDS011;50545;56.064;26.178;2022-09-09T03:45:12;1.25;;;0.98;;
64225;SDS011;50545;56.064;26.178;2022-09-09T03:47:39;0.98;;;0.77;;
64225;SDS011;50545;56.064;26.178;2022-09-09T03:50:07;2.22;;;1.20;;
64225;SDS011;50545;56.064;26.178;2022-09-09T03:52:37;2.33;;;1.40;;
64225;SDS011;50545;56.064;26.178;2022-09-09T03:55:05;2.30;;;1.10;;
64225;SDS011;50545;56.064;26.178;2022-09-09T03:57:34;1.08;;;0.93;;
64225;SDS011;50545;56.064;26.178;2022-09-09T04:00:03;1.40;;;1.10;;
64225;SDS011;50545;56.064;26.178;2022-09-09T04:02:31;2.38;;;1.25;;
64225;SDS011;50545;56.064;26.178;2022-09-09T04:04:59;1.20;;;0.95;;
64225;SDS011;50545;56.064;26.178;2022-09-09T04:07:26;2.00;;;0.95;;
64225;SDS011;50545;56.064;26.178;2022-09-09T04:09:54;1.15;;;0.95;;
64225;SDS011;50545;56.064;26.178;2022-09-09T04:12:21;1.20;;;1.00;;
64225;SDS011;50545;56.064;26.178;2022-09-09T04:14:49;15.68;;;7.85;;
64225;SDS011;50545;56.064;26.178;2022-09-09T04:17:16;15.75;;;8.48;;
64225;SDS011;50545;56.064;26.178;2022-09-09T04:19:43;8.52;;;4.57;;
64225;SDS011;50545;56.064;26.178;2022-09-09T04:22:11;5.70;;;3.03;;
64225;SDS011;50545;56.064;26.178;2022-09-09T04:24:38;5.60;;;2.28;;
64225;SDS011;50545;56.064;26.178;2022-09-09T04:27:05;3.00;;;1.52;;
64225;SDS011;50545;56.064;26.178;2022-09-09T04:29:32;3.58;;;1.90;;
64225;SDS011;50545;56.064;26.178;2022-09-09T04:32:00;2.20;;;1.45;;
64225;SDS011;50545;56.064;26.178;2022-09-09T04:34:27;2.13;;;1.65;;
64225;SDS011;50545;56.064;26.178;2022-09-09T04:36:55;3.15;;;1.67;;
64225;SDS011;50545;56.064;26.178;2022-09-09T04:39:23;2.08;;;1.35;;
64225;SDS011;50545;56.064;26.178;2022-09-09T04:41:51;3.08;;;1.60;;
64225;SDS011;50545;56.064;26.178;2022-09-09T04:44:18;1.35;;;1.20;;
64225;SDS011;50545;56.064;26.178;2022-09-09T04:46:45;1.92;;;1.30;;
64225;SDS011;50545;56.064;26.178;2022-09-09T04:49:13;1.88;;;1.45;;
64225;SDS011;50545;56.064;26.178;2022-09-09T04:51:40;3.95;;;2.03;;
64225;SDS011;50545;56.064;26.178;2022-09-09T04:54:07;4.18;;;1.80;;
64225;SDS011;50545;56.064;26.178;2022-09-09T04:56:35;4.50;;;1.58;;
64225;SDS011;50545;56.064;26.178;2022-09-09T04:59:02;4.55;;;1.67;;
64225;SDS011;50545;56.064;26.178;2022-09-09T05:01:30;1.70;;;1.17;;
64225;SDS011;50545;56.064;26.178;2022-09-09T05:03:58;2.40;;;1.20;;
64225;SDS011;50545;56.064;26.178;2022-09-09T05:06:25;1.52;;;1.15;;
64225;SDS011;50545;56.064;26.178;2022-09-09T05:08:53;1.42;;;1.10;;
64225;SDS011;50545;56.064;26.178;2022-09-09T05:11:21;2.10;;;1.30;;
64225;SDS011;50545;56.064;26.178;2022-09-09T05:13:50;1.17;;;1.08;;
64225;SDS011;50545;56.064;26.178;2022-09-09T05:16:19;2.75;;;1.50;;
64225;SDS011;50545;56.064;26.178;2022-09-09T05:18:47;1.50;;;1.23;;
64225;SDS011;50545;56.064;26.178;2022-09-09T05:21:17;3.42;;;1.85;;
64225;SDS011;50545;56.064;26.178;2022-09-09T05:23:45;1.42;;;1.23;;
64225;SDS011;50545;56.064;26.178;2022-09-09T05:26:14;1.92;;;1.40;;
64225;SDS011;50545;56.064;26.178;2022-09-09T05:28:43;1.60;;;1.25;;
64225;SDS011;50545;56.064;26.178;2022-09-09T05:31:11;2.65;;;1.40;;
64225;SDS011;50545;56.064;26.178;2022-09-09T05:33:41;1.23;;;1.13;;
64225;SDS011;50545;56.064;26.178;2022-09-09T05:36:10;2.15;;;1.33;;
64225;SDS011;50545;56.064;26.178;2022-09-09T05:38:42;1.88;;;1.30;;
64225;SDS011;50545;56.064;26.178;2022-09-09T05:41:10;1.52;;;1.08;;
64225;SDS011;50545;56.064;26.178;2022-09-09T05:43:38;1.38;;;1.20;;
64225;SDS011;50545;56.064;26.178;2022-09-09T05:46:06;2.13;;;1.45;;
64225;SDS011;50545;56.064;26.178;2022-09-09T05:48:39;1.88;;;1.38;;
64225;SDS011;50545;56.064;26.178;2022-09-09T05:51:09;1.60;;;1.23;;
64225;SDS011;50545;56.064;26.178;2022-09-09T05:53:42;1.95;;;1.60;;
64225;SDS011;50545;56.064;26.178;2022-09-09T05:56:11;1.80;;;1.58;;
64225;SDS011;50545;56.064;26.178;2022-09-09T05:58:46;2.80;;;1.35;;
64225;SDS011;50545;56.064;26.178;2022-09-09T06:01:14;2.42;;;1.52;;
64225;SDS011;50545;56.064;26.178;2022-09-09T06:03:44;1.47;;;1.33;;
64225;SDS011;50545;56.064;26.178;2022-09-09T06:06:16;2.90;;;1.35;;
64225;SDS011;50545;56.064;26.178;2022-09-09T06:08:50;3.35;;;1.52;;
64225;SDS011;50545;56.064;26.178;2022-09-09T06:13:47;1.90;;;1.42;;
64225;SDS011;50545;56.064;26.178;2022-09-09T06:16:18;1.88;;;1.48;;
64225;SDS011;50545;56.064;26.178;2022-09-09T06:18:46;2.83;;;1.65;;
64225;SDS011;50545;56.064;26.178;2022-09-09T06:21:16;2.13;;;1.42;;
64225;SDS011;50545;56.064;26.178;2022-09-09T06:23:47;1.60;;;1.35;;
64225;SDS011;50545;56.064;26.178;2022-09-09T06:26:16;1.98;;;1.50;;
64225;SDS011;50545;56.064;26.178;2022-09-09T06:28:45;1.93;;;1.40;;
64225;SDS011;50545;56.064;26.178;2022-09-09T06:31:14;1.75;;;1.40;;
64225;SDS011;50545;56.064;26.178;2022-09-09T06:33:55;1.85;;;1.45;;
64225;SDS011;50545;56.064;26.178;2022-09-09T06:38:52;3.45;;;1.48;;
64225;SDS011;50545;56.064;26.178;2022-09-09T06:41:21;2.40;;;1.48;;
64225;SDS011;50545;56.064;26.178;2022-09-09T06:43:49;2.28;;;1.40;;
64225;SDS011;50545;56.064;26.178;2022-09-09T06:46:17;2.25;;;1.35;;
64225;SDS011;50545;56.064;26.178;2022-09-09T06:48:46;2.10;;;1.35;;
64225;SDS011;50545;56.064;26.178;2022-09-09T06:53:45;1.80;;;1.25;;
64225;SDS011;50545;56.064;26.178;2022-09-09T06:58:43;1.92;;;1.40;;
64225;SDS011;50545;56.064;26.178;2022-09-09T07:01:12;1.30;;;1.00;;
64225;SDS011;50545;56.064;26.178;2022-09-09T07:03:42;2.63;;;1.40;;
64225;SDS011;50545;56.064;26.178;2022-09-09T07:06:14;1.70;;;1.40;;
64225;SDS011;50545;56.064;26.178;2022-09-09T07:08:49;2.92;;;1.50;;
64225;SDS011;50545;56.064;26.178;2022-09-09T07:11:22;1.33;;;1.00;;
64225;SDS011;50545;56.064;26.178;2022-09-09T07:13:52;2.40;;;1.33;;
64225;SDS011;50545;56.064;26.178;2022-09-09T07:16:20;3.13;;;1.52;;
64225;SDS011;50545;56.064;26.178;2022-09-09T07:18:52;3.10;;;1.42;;
64225;SDS011;50545;56.064;26.178;2022-09-09T07:21:23;2.40;;;1.27;;
64225;SDS011;50545;56.064;26.178;2022-09-09T07:23:52;1.60;;;1.10;;
64225;SDS011;50545;56.064;26.178;2022-09-09T07:26:22;1.23;;;1.08;;
64225;SDS011;50545;56.064;26.178;2022-09-09T07:28:53;1.13;;;1.02;;
64225;SDS011;50545;56.064;26.178;2022-09-09T07:31:23;1.15;;;1.00;;
64225;SDS011;50545;56.064;26.178;2022-09-09T07:36:21;1.10;;;1.00;;
64225;SDS011;50545;56.064;26.178;2022-09-09T07:38:59;2.03;;;1.10;;
64225;SDS011;50545;56.064;26.178;2022-09-09T07:41:32;1.50;;;0.90;;
64225;SDS011;50545;56.064;26.178;2022-09-09T07:44:09;2.15;;;1.30;;
64225;SDS011;50545;56.064;26.178;2022-09-09T07:46:39;1.35;;;0.77;;
64225;SDS011;50545;56.064;26.178;2022-09-09T07:49:07;1.38;;;1.10;;
64225;SDS011;50545;56.064;26.178;2022-09-09T07:51:37;1.33;;;1.02;;
64225;SDS011;50545;56.064;26.178;2022-09-09T07:54:08;1.45;;;1.20;;
64225;SDS011;50545;56.064;26.178;2022-09-09T07:56:38;1.83;;;1.13;;
64225;SDS011;50545;56.064;26.178;2022-09-09T07:59:10;1.08;;;0.82;;
64225;SDS011;50545;56.064;26.178;2022-09-09T08:01:48;2.65;;;0.90;;
64225;SDS011;50545;56.064;26.178;2022-09-09T08:04:21;0.85;;;0.85;;
64225;SDS011;50545;56.064;26.178;2022-09-09T08:06:54;1.83;;;0.90;;
64225;SDS011;50545;56.064;26.178;2022-09-09T08:09:23;2.28;;;1.13;;
64225;SDS011;50545;56.064;26.178;2022-09-09T08:11:53;1.10;;;1.00;;
64225;SDS011;50545;56.064;26.178;2022-09-09T08:14:22;0.80;;;0.80;;
64225;SDS011;50545;56.064;26.178;2022-09-09T08:16:50;1.38;;;0.95;;
64225;SDS011;50545;56.064;26.178;2022-09-09T08:19:20;1.25;;;1.10;;
64225;SDS011;50545;56.064;26.178;2022-09-09T08:21:48;2.05;;;0.80;;
64225;SDS011;50545;56.064;26.178;2022-09-09T08:24:15;1.40;;;0.82;;
64225;SDS011;50545;56.064;26.178;2022-09-09T08:26:43;1.42;;;0.95;;
64225;SDS011;50545;56.064;26.178;2022-09-09T08:29:13;1.27;;;0.88;;
64225;SDS011;50545;56.064;26.178;2022-09-09T08:31:41;1.10;;;0.90;;
64225;SDS011;50545;56.064;26.178;2022-09-09T08:34:13;1.10;;;0.90;;
64225;SDS011;50545;56.064;26.178;2022-09-09T08:36:44;0.63;;;0.57;;
64225;SDS011;50545;56.064;26.178;2022-09-09T08:39:13;1.10;;;1.00;;
64225;SDS011;50545;56.064;26.178;2022-09-09T08:52:53;3.10;;;0.98;;
64225;SDS011;50545;56.064;26.178;2022-09-09T08:55:38;1.02;;;0.93;;
64225;SDS011;50545;56.064;26.178;2022-09-09T09:18:51;0.70;;;0.70;;
64225;SDS011;50545;56.064;26.178;2022-09-09T09:24:18;0.80;;;0.80;;
64225;SDS011;50545;56.064;26.178;2022-09-09T09:26:48;0.70;;;0.70;;
64225;SDS011;50545;56.064;26.178;2022-09-09T09:29:17;1.23;;;0.93;;
64225;SDS011;50545;56.064;26.178;2022-09-09T09:31:51;1.25;;;0.90;;
64225;SDS011;50545;56.064;26.178;2022-09-09T09:34:21;1.40;;;0.90;;
64225;SDS011;50545;56.064;26.178;2022-09-09T09:36:53;0.70;;;0.70;;
64225;SDS011;50545;56.064;26.178;2022-09-09T09:42:11;1.48;;;0.80;;
64225;SDS011;50545;56.064;26.178;2022-09-09T09:44:44;0.73;;;0.73;;
64225;SDS011;50545;56.064;26.178;2022-09-09T09:47:13;1.42;;;1.00;;
64225;SDS011;50545;56.064;26.178;2022-09-09T09:54:51;0.60;;;0.60;;
64225;SDS011;50545;56.064;26.178;2022-09-09T09:57:22;2.25;;;0.55;;
64225;SDS011;50545;56.064;26.178;2022-09-09T10:00:18;1.02;;;0.80;;
64225;SDS011;50545;56.064;26.178;2022-09-09T10:02:47;2.30;;;0.88;;
64225;SDS011;50545;56.064;26.178;2022-09-09T10:05:16;1.00;;;0.68;;
64225;SDS011;50545;56.064;26.178;2022-09-09T10:08:05;0.85;;;0.65;;
64225;SDS011;50545;56.064;26.178;2022-09-09T10:16:46;1.73;;;0.98;;
64225;SDS011;50545;56.064;26.178;2022-09-09T10:33:37;1.08;;;0.80;;
64225;SDS011;50545;56.064;26.178;2022-09-09T10:36:12;1.08;;;0.70;;
64225;SDS011;50545;56.064;26.178;2022-09-09T10:43:59;0.85;;;0.70;;
64225;SDS011;50545;56.064;26.178;2022-09-09T10:55:14;3.85;;;1.00;;
64225;SDS011;50545;56.064;26.178;2022-09-09T10:57:45;1.67;;;0.82;;
64225;SDS011;50545;56.064;26.178;2022-09-09T11:00:17;1.20;;;0.77;;
64225;SDS011;50545;56.064;26.178;2022-09-09T11:03:00;1.25;;;0.98;;
64225;SDS011;50545;56.064;26.178;2022-09-09T11:05:35;0.70;;;0.70;;
64225;SDS011;50545;56.064;26.178;2022-09-09T11:08:13;1.08;;;0.88;;
64225;SDS011;50545;56.064;26.178;2022-09-09T11:16:16;0.75;;;0.68;;
64225;SDS011;50545;56.064;26.178;2022-09-09T11:19:10;2.45;;;1.00;;
64225;SDS011;50545;56.064;26.178;2022-09-09T11:21:40;0.90;;;0.90;;
64225;SDS011;50545;56.064;26.178;2022-09-09T11:24:18;1.15;;;0.90;;
64225;SDS011;50545;56.064;26.178;2022-09-09T11:27:14;0.60;;;0.60;;
64225;SDS011;50545;56.064;26.178;2022-09-09T11:30:20;1.27;;;0.90;;
64225;SDS011;50545;56.064;26.178;2022-09-09T11:42:22;0.70;;;0.70;;
64225;SDS011;50545;56.064;26.178;2022-09-09T11:44:51;0.88;;;0.82;;
64225;SDS011;50545;56.064;26.178;2022-09-09T11:55:43;0.60;;;0.60;;
64225;SDS011;50545;56.064;26.178;2022-09-09T12:06:27;0.88;;;0.68;;
64225;SDS011;50545;56.064;26.178;2022-09-09T12:11:50;0.55;;;0.55;;
64225;SDS011;50545;56.064;26.178;2022-09-09T12:14:34;0.77;;;0.70;;
64225;SDS011;50545;56.064;26.178;2022-09-09T12:19:59;0.55;;;0.55;;
64225;SDS011;50545;56.064;26.178;2022-09-09T12:28:15;5.65;;;1.05;;
64225;SDS011;50545;56.064;26.178;2022-09-09T12:33:48;0.85;;;0.57;;
64225;SDS011;50545;56.064;26.178;2022-09-09T12:36:16;1.52;;;1.00;;
64225;SDS011;50545;56.064;26.178;2022-09-09T12:38:48;1.00;;;0.70;;
64225;SDS011;50545;56.064;26.178;2022-09-09T12:41:21;1.38;;;1.02;;
64225;SDS011;50545;56.064;26.178;2022-09-09T12:44:02;0.80;;;0.70;;
64225;SDS011;50545;56.064;26.178;2022-09-09T12:46:39;1.63;;;0.90;;
64225;SDS011;50545;56.064;26.178;2022-09-09T12:49:25;2.40;;;0.80;;
64225;SDS011;50545;56.064;26.178;2022-09-09T12:52:24;1.42;;;0.73;;
64225;SDS011;50545;56.064;26.178;2022-09-09T12:54:58;1.92;;;0.70;;
64225;SDS011;50545;56.064;26.178;2022-09-09T12:57:29;4.40;;;1.05;;
64225;SDS011;50545;56.064;26.178;2022-09-09T13:00:20;1.30;;;1.00;;
64225;SDS011;50545;56.064;26.178;2022-09-09T13:02:51;0.55;;;0.55;;
64225;SDS011;50545;56.064;26.178;2022-09-09T13:07:51;0.73;;;0.65;;
64225;SDS011;50545;56.064;26.178;2022-09-09T13:10:29;0.45;;;0.45;;
64225;SDS011;50545;56.064;26.178;2022-09-09T13:13:24;1.30;;;0.82;;
64225;SDS011;50545;56.064;26.178;2022-09-09T13:16:03;1.23;;;0.75;;
64225;SDS011;50545;56.064;26.178;2022-09-09T13:18:35;0.93;;;0.55;;
64225;SDS011;50545;56.064;26.178;2022-09-09T13:21:06;0.60;;;0.60;;
64225;SDS011;50545;56.064;26.178;2022-09-09T13:23:34;0.45;;;0.45;;
64225;SDS011;50545;56.064;26.178;2022-09-09T13:26:04;0.95;;;0.63;;
64225;SDS011;50545;56.064;26.178;2022-09-09T13:28:53;0.38;;;0.38;;
64225;SDS011;50545;56.064;26.178;2022-09-09T13:31:28;1.05;;;0.75;;
64225;SDS011;50545;56.064;26.178;2022-09-09T13:33:56;1.48;;;0.70;;
64225;SDS011;50545;56.064;26.178;2022-09-09T13:36:27;2.55;;;1.10;;
64225;SDS011;50545;56.064;26.178;2022-09-09T13:38:58;2.92;;;1.00;;
64225;SDS011;50545;56.064;26.178;2022-09-09T13:41:31;2.83;;;0.82;;
64225;SDS011;50545;56.064;26.178;2022-09-09T13:44:02;2.15;;;1.25;;
64225;SDS011;50545;56.064;26.178;2022-09-09T13:46:34;1.45;;;0.65;;
64225;SDS011;50545;56.064;26.178;2022-09-09T13:54:05;1.02;;;0.90;;
64225;SDS011;50545;56.064;26.178;2022-09-09T13:56:33;0.75;;;0.68;;
64225;SDS011;50545;56.064;26.178;2022-09-09T13:59:05;0.60;;;0.52;;
64225;SDS011;50545;56.064;26.178;2022-09-09T14:01:36;0.90;;;0.73;;
64225;SDS011;50545;56.064;26.178;2022-09-09T14:04:04;0.98;;;0.73;;
64225;SDS011;50545;56.064;26.178;2022-09-09T14:06:35;1.33;;;0.77;;
64225;SDS011;50545;56.064;26.178;2022-09-09T14:09:06;1.88;;;0.88;;
64225;SDS011;50545;56.064;26.178;2022-09-09T14:11:34;1.20;;;0.73;;
64225;SDS011;50545;56.064;26.178;2022-09-09T14:14:01;1.98;;;1.10;;
64225;SDS011;50545;56.064;26.178;2022-09-09T14:16:28;3.33;;;0.75;;
64225;SDS011;50545;56.064;26.178;2022-09-09T14:18:56;1.35;;;1.00;;
64225;SDS011;50545;56.064;26.178;2022-09-09T14:21:24;0.77;;;0.60;;
64225;SDS011;50545;56.064;26.178;2022-09-09T14:23:52;14.15;;;5.35;;
64225;SDS011;50545;56.064;26.178;2022-09-09T14:26:20;13.00;;;4.28;;
64225;SDS011;50545;56.064;26.178;2022-09-09T14:28:48;3.38;;;1.23;;
64225;SDS011;50545;56.064;26.178;2022-09-09T14:31:24;2.33;;;1.38;;
64225;SDS011;50545;56.064;26.178;2022-09-09T14:33:51;1.73;;;1.45;;
64225;SDS011;50545;56.064;26.178;2022-09-09T14:36:19;6.70;;;1.85;;
64225;SDS011;50545;56.064;26.178;2022-09-09T14:38:47;6.47;;;2.33;;
64225;SDS011;50545;56.064;26.178;2022-09-09T14:41:15;4.82;;;1.58;;
64225;SDS011;50545;56.064;26.178;2022-09-09T14:43:44;1.83;;;1.30;;
64225;SDS011;50545;56.064;26.178;2022-09-09T14:46:13;2.30;;;1.23;;
64225;SDS011;50545;56.064;26.178;2022-09-09T14:48:42;2.22;;;1.42;;
64225;SDS011;50545;56.064;26.178;2022-09-09T14:51:16;2.90;;;1.50;;
64225;SDS011;50545;56.064;26.178;2022-09-09T14:53:50;1.60;;;1.20;;
64225;SDS011;50545;56.064;26.178;2022-09-09T14:56:20;2.85;;;2.10;;
64225;SDS011;50545;56.064;26.178;2022-09-09T14:58:50;2.58;;;1.65;;
64225;SDS011;50545;56.064;26.178;2022-09-09T15:03:52;1.80;;;1.17;;
64225;SDS011;50545;56.064;26.178;2022-09-09T15:06:22;2.50;;;1.38;;
64225;SDS011;50545;56.064;26.178;2022-09-09T15:08:50;1.40;;;1.10;;
64225;SDS011;50545;56.064;26.178;2022-09-09T15:11:19;2.45;;;1.40;;
64225;SDS011;50545;56.064;26.178;2022-09-09T15:13:47;1.73;;;1.17;;
64225;SDS011;50545;56.064;26.178;2022-09-09T15:16:19;1.80;;;1.33;;
64225;SDS011;50545;56.064;26.178;2022-09-09T15:18:49;1.45;;;1.13;;
64225;SDS011;50545;56.064;26.178;2022-09-09T15:21:19;2.10;;;1.40;;
64225;SDS011;50545;56.064;26.178;2022-09-09T15:23:48;1.60;;;1.45;;
64225;SDS011;50545;56.064;26.178;2022-09-09T15:26:15;1.23;;;1.05;;
64225;SDS011;50545;56.064;26.178;2022-09-09T15:28:44;2.47;;;1.63;;
64225;SDS011;50545;56.064;26.178;2022-09-09T15:31:14;3.05;;;1.83;;
64225;SDS011;50545;56.064;26.178;2022-09-09T15:33:47;2.45;;;1.70;;
64225;SDS011;50545;56.064;26.178;2022-09-09T15:36:16;3.08;;;1.70;;
64225;SDS011;50545;56.064;26.178;2022-09-09T15:38:45;2.15;;;1.50;;
64225;SDS011;50545;56.064;26.178;2022-09-09T15:41:13;2.10;;;1.15;;
64225;SDS011;50545;56.064;26.178;2022-09-09T15:43:44;2.03;;;1.40;;
64225;SDS011;50545;56.064;26.178;2022-09-09T15:49:09;3.83;;;2.33;;
64225;SDS011;50545;56.064;26.178;2022-09-09T15:51:42;4.40;;;2.15;;
64225;SDS011;50545;56.064;26.178;2022-09-09T15:54:12;4.60;;;2.92;;
64225;SDS011;50545;56.064;26.178;2022-09-09T15:56:43;4.97;;;2.97;;
64225;SDS011;50545;56.064;26.178;2022-09-09T15:59:11;4.55;;;2.95;;
64225;SDS011;50545;56.064;26.178;2022-09-09T16:01:40;4.07;;;2.63;;
64225;SDS011;50545;56.064;26.178;2022-09-09T16:04:08;3.03;;;2.20;;
64225;SDS011;50545;56.064;26.178;2022-09-09T16:06:36;1.70;;;1.55;;
64225;SDS011;50545;56.064;26.178;2022-09-09T16:09:04;2.60;;;1.83;;
64225;SDS011;50545;56.064;26.178;2022-09-09T16:11:33;2.00;;;1.50;;
64225;SDS011;50545;56.064;26.178;2022-09-09T16:14:02;2.58;;;1.63;;
64225;SDS011;50545;56.064;26.178;2022-09-09T16:16:30;3.53;;;1.25;;
64225;SDS011;50545;56.064;26.178;2022-09-09T16:19:03;1.88;;;0.90;;
64225;SDS011;50545;56.064;26.178;2022-09-09T16:21:33;0.98;;;0.98;;
64225;SDS011;50545;56.064;26.178;2022-09-09T16:24:02;1.35;;;1.00;;
64225;SDS011;50545;56.064;26.178;2022-09-09T16:26:31;1.20;;;1.05;;
64225;SDS011;50545;56.064;26.178;2022-09-09T16:29:00;3.67;;;1.13;;
64225;SDS011;50545;56.064;26.178;2022-09-09T16:31:29;1.17;;;0.90;;
64225;SDS011;50545;56.064;26.178;2022-09-09T16:33:58;2.30;;;1.00;;
64225;SDS011;50545;56.064;26.178;2022-09-09T16:36:29;2.58;;;1.30;;
64225;SDS011;50545;56.064;26.178;2022-09-09T16:38:58;2.03;;;1.15;;
64225;SDS011;50545;56.064;26.178;2022-09-09T16:41:27;1.88;;;1.10;;
64225;SDS011;50545;56.064;26.178;2022-09-09T16:44:06;2.42;;;1.17;;
64225;SDS011;50545;56.064;26.178;2022-09-09T16:46:35;2.40;;;1.27;;
64225;SDS011;50545;56.064;26.178;2022-09-09T16:49:09;1.27;;;1.08;;
64225;SDS011;50545;56.064;26.178;2022-09-09T16:51:39;2.53;;;1.33;;
64225;SDS011;50545;56.064;26.178;2022-09-09T16:54:08;2.88;;;1.13;;
64225;SDS011;50545;56.064;26.178;2022-09-09T16:56:37;3.95;;;1.10;;
64225;SDS011;50545;56.064;26.178;2022-09-09T16:59:09;2.15;;;1.30;;
64225;SDS011;50545;56.064;26.178;2022-09-09T17:01:39;3.05;;;1.17;;
64225;SDS011;50545;56.064;26.178;2022-09-09T17:04:09;4.23;;;1.30;;
64225;SDS011;50545;56.064;26.178;2022-09-09T17:06:39;5.03;;;1.33;;
64225;SDS011;50545;56.064;26.178;2022-09-09T17:09:09;2.10;;;1.00;;
64225;SDS011;50545;56.064;26.178;2022-09-09T17:11:37;2.72;;;1.40;;
64225;SDS011;50545;56.064;26.178;2022-09-09T17:14:08;2.80;;;1.30;;
64225;SDS011;50545;56.064;26.178;2022-09-09T17:16:38;2.10;;;1.10;;
64225;SDS011;50545;56.064;26.178;2022-09-09T17:19:06;1.17;;;1.02;;
64225;SDS011;50545;56.064;26.178;2022-09-09T17:21:35;3.17;;;1.20;;
64225;SDS011;50545;56.064;26.178;2022-09-09T17:24:20;1.65;;;1.10;;
64225;SDS011;50545;56.064;26.178;2022-09-09T17:26:48;2.58;;;1.00;;
64225;SDS011;50545;56.064;26.178;2022-09-09T17:29:15;0.85;;;0.85;;
64225;SDS011;50545;56.064;26.178;2022-09-09T17:31:43;2.33;;;1.15;;
64225;SDS011;50545;56.064;26.178;2022-09-09T17:34:10;3.90;;;1.08;;
64225;SDS011;50545;56.064;26.178;2022-09-09T17:36:37;3.58;;;1.10;;
64225;SDS011;50545;56.064;26.178;2022-09-09T17:39:05;3.22;;;1.45;;
64225;SDS011;50545;56.064;26.178;2022-09-09T17:41:34;2.45;;;1.20;;
64225;SDS011;50545;56.064;26.178;2022-09-09T17:44:03;3.47;;;1.30;;
64225;SDS011;50545;56.064;26.178;2022-09-09T17:46:32;4.50;;;1.10;;
64225;SDS011;50545;56.064;26.178;2022-09-09T17:49:10;1.00;;;0.90;;
64225;SDS011;50545;56.064;26.178;2022-09-09T17:51:40;1.70;;;0.80;;
64225;SDS011;50545;56.064;26.178;2022-09-09T17:54:12;2.63;;;1.38;;
64225;SDS011;50545;56.064;26.178;2022-09-09T17:56:41;2.13;;;1.27;;
64225;SDS011;50545;56.064;26.178;2022-09-09T17:59:11;2.25;;;1.30;;
64225;SDS011;50545;56.064;26.178;2022-09-09T18:01:40;1.48;;;1.10;;
64225;SDS011;50545;56.064;26.178;2022-09-09T18:04:11;2.22;;;1.48;;
64225;SDS011;50545;56.064;26.178;2022-09-09T18:06:42;3.08;;;1.20;;
64225;SDS011;50545;56.064;26.178;2022-09-09T18:09:13;1.85;;;1.35;;
64225;SDS011;50545;56.064;26.178;2022-09-09T18:11:44;3.30;;;1.35;;
64225;SDS011;50545;56.064;26.178;2022-09-09T18:14:13;3.37;;;1.37;;
64225;SDS011;50545;56.064;26.178;2022-09-09T18:16:43;1.85;;;1.33;;
64225;SDS011;50545;56.064;26.178;2022-09-09T18:19:12;1.35;;;1.15;;
64225;SDS011;50545;56.064;26.178;2022-09-09T18:21:41;1.90;;;1.20;;
64225;SDS011;50545;56.064;26.178;2022-09-09T18:24:10;3.05;;;1.33;;